sensor_id;sensor_type;location;lat;lon;timestamp;pressure;altitude;pressure_sealevel;temperature;humidity
23619;BME280;18207;32.078;34.818;2023-11-21T00:01:56;101007.38;;;27.60;39.93
23619;BME280;18207;32.078;34.818;2023-11-21T00:04:26;101008.94;;;27.58;40.09
23619;BME280;18207;32.078;34.818;2023-11-21T00:06:55;100998.47;;;27.58;39.90
23619;BME280;18207;32.078;34.818;2023-11-21T00:09:25;101006.94;;;27.58;39.88
23619;BME280;18207;32.078;34.818;2023-11-21T00:11:55;101009.78;;;27.58;39.78
23619;BME280;18207;32.078;34.818;2023-11-21T00:14:25;101001.28;;;27.58;39.91
23619;BME280;18207;32.078;34.818;2023-11-21T00:16:56;101008.94;;;27.58;39.91
23619;BME280;18207;32.078;34.818;2023-11-21T00:19:26;101012.94;;;27.57;39.92
23619;BME280;18207;32.078;34.818;2023-11-21T00:21:56;101014.97;;;27.56;39.83
23619;BME280;18207;32.078;34.818;2023-11-21T00:24:26;101001.25;;;27.55;40.02
23619;BME280;18207;32.078;34.818;2023-11-21T00:26:56;101004.06;;;27.55;40.00
23619;BME280;18207;32.078;34.818;2023-11-21T00:29:25;101004.06;;;27.55;39.95
23619;BME280;18207;32.078;34.818;2023-11-21T00:31:57;100995.59;;;27.55;40.05
23619;BME280;18207;32.078;34.818;2023-11-21T00:34:34;100993.13;;;27.53;39.65
23619;BME280;18207;32.078;34.818;2023-11-21T00:37:04;100996.34;;;27.52;39.82
23619;BME280;18207;32.078;34.818;2023-11-21T00:39:33;101003.16;;;27.51;39.66
23619;BME280;18207;32.078;34.818;2023-11-21T00:42:03;101005.19;;;27.50;39.90
23619;BME280;18207;32.078;34.818;2023-11-21T00:44:33;101010.00;;;27.50;39.79
23619;BME280;18207;32.078;34.818;2023-11-21T00:47:05;101005.56;;;27.49;39.75
23619;BME280;18207;32.078;34.818;2023-11-21T00:49:36;101010.75;;;27.47;39.78
23619;BME280;18207;32.078;34.818;2023-11-21T00:52:07;101006.31;;;27.46;39.86
23619;BME280;18207;32.078;34.818;2023-11-21T00:54:37;101016.78;;;27.45;39.58
23619;BME280;18207;32.078;34.818;2023-11-21T00:57:09;101013.56;;;27.47;39.87
23619;BME280;18207;32.078;34.818;2023-11-21T00:59:39;101011.97;;;27.46;39.73
23619;BME280;18207;32.078;34.818;2023-11-21T01:02:11;101013.97;;;27.45;39.84
23619;BME280;18207;32.078;34.818;2023-11-21T01:04:41;101009.50;;;27.44;39.62
23619;BME280;18207;32.078;34.818;2023-11-21T01:07:11;101011.13;;;27.45;40.03
23619;BME280;18207;32.078;34.818;2023-11-21T01:09:41;101008.31;;;27.45;39.90
23619;BME280;18207;32.078;34.818;2023-11-21T01:12:12;101011.13;;;27.45;39.69
23619;BME280;18207;32.078;34.818;2023-11-21T01:14:41;101007.13;;;27.46;39.71
23619;BME280;18207;32.078;34.818;2023-11-21T01:17:13;101002.28;;;27.47;39.77
23619;BME280;18207;32.078;34.818;2023-11-21T01:19:43;101003.50;;;27.46;39.77
23619;BME280;18207;32.078;34.818;2023-11-21T01:22:12;101011.13;;;27.45;39.62
23619;BME280;18207;32.078;34.818;2023-11-21T01:24:43;101000.69;;;27.46;39.58
23619;BME280;18207;32.078;34.818;2023-11-21T01:27:16;101010.75;;;27.47;39.73
23619;BME280;18207;32.078;34.818;2023-11-21T01:29:46;101016.41;;;27.47;39.60
23619;BME280;18207;32.078;34.818;2023-11-21T01:32:18;101010.41;;;27.48;39.72
23619;BME280;18207;32.078;34.818;2023-11-21T01:34:50;101005.56;;;27.49;39.58
23619;BME280;18207;32.078;34.818;2023-11-21T01:37:20;101014.41;;;27.47;39.70
23619;BME280;18207;32.078;34.818;2023-11-21T01:39:50;101020.06;;;27.47;39.76
23619;BME280;18207;32.078;34.818;2023-11-21T01:42:20;101011.19;;;27.49;39.79
23619;BME280;18207;32.078;34.818;2023-11-21T01:44:49;101022.50;;;27.49;39.48
23619;BME280;18207;32.078;34.818;2023-11-21T01:47:21;101029.78;;;27.50;39.65
23619;BME280;18207;32.078;34.818;2023-11-21T01:49:51;101028.13;;;27.49;39.60
23619;BME280;18207;32.078;34.818;2023-11-21T01:52:21;101029.78;;;27.50;39.72
23619;BME280;18207;32.078;34.818;2023-11-21T01:54:51;101021.31;;;27.50;39.72
23619;BME280;18207;32.078;34.818;2023-11-21T01:57:22;101025.75;;;27.51;39.97
23619;BME280;18207;32.078;34.818;2023-11-21T01:59:54;101022.94;;;27.51;39.92
23619;BME280;18207;32.078;34.818;2023-11-21T02:02:25;101026.94;;;27.50;40.08
23619;BME280;18207;32.078;34.818;2023-11-21T02:04:55;101028.13;;;27.49;39.85
23619;BME280;18207;32.078;34.818;2023-11-21T02:07:25;101024.50;;;27.48;40.17
23619;BME280;18207;32.078;34.818;2023-11-21T02:09:55;101032.97;;;27.48;40.11
23619;BME280;18207;32.078;34.818;2023-11-21T02:12:24;101027.34;;;27.48;39.75
23619;BME280;18207;32.078;34.818;2023-11-21T02:14:54;101034.63;;;27.49;39.80
23619;BME280;18207;32.078;34.818;2023-11-21T02:17:27;101036.59;;;27.49;40.23
23619;BME280;18207;32.078;34.818;2023-11-21T02:19:56;101041.44;;;27.48;40.19
23619;BME280;18207;32.078;34.818;2023-11-21T02:22:31;101032.16;;;27.48;39.92
23619;BME280;18207;32.078;34.818;2023-11-21T02:25:06;101033.34;;;27.47;40.07
23619;BME280;18207;32.078;34.818;2023-11-21T02:27:37;101040.19;;;27.46;40.17
23619;BME280;18207;32.078;34.818;2023-11-21T02:30:08;101036.53;;;27.45;39.93
23619;BME280;18207;32.078;34.818;2023-11-21T02:32:41;101043.38;;;27.44;39.92
23619;BME280;18207;32.078;34.818;2023-11-21T02:35:16;101050.22;;;27.43;40.10
23619;BME280;18207;32.078;34.818;2023-11-21T02:37:46;101057.88;;;27.43;39.95
23619;BME280;18207;32.078;34.818;2023-11-21T02:40:17;101054.22;;;27.42;40.27
23619;BME280;18207;32.078;34.818;2023-11-21T02:42:49;101057.00;;;27.39;40.47
23619;BME280;18207;32.078;34.818;2023-11-21T02:45:21;101058.19;;;27.38;40.07
23619;BME280;18207;32.078;34.818;2023-11-21T02:47:52;101051.72;;;27.37;40.29
23619;BME280;18207;32.078;34.818;2023-11-21T02:50:26;101059.38;;;27.37;40.34
23619;BME280;18207;32.078;34.818;2023-11-21T02:52:56;101061.00;;;27.38;40.15
23619;BME280;18207;32.078;34.818;2023-11-21T02:55:30;101059.81;;;27.39;40.34
23619;BME280;18207;32.078;34.818;2023-11-21T02:58:03;101065.47;;;27.39;40.30
23619;BME280;18207;32.078;34.818;2023-11-21T03:00:34;101063.47;;;27.39;40.22
23619;BME280;18207;32.078;34.818;2023-11-21T03:03:04;101067.47;;;27.38;40.32
23619;BME280;18207;32.078;34.818;2023-11-21T03:05:34;101071.09;;;27.39;40.22
23619;BME280;18207;32.078;34.818;2023-11-21T03:08:05;101061.84;;;27.38;40.18
23619;BME280;18207;32.078;34.818;2023-11-21T03:10:37;101073.13;;;27.38;40.29
23619;BME280;18207;32.078;34.818;2023-11-21T03:13:06;101079.56;;;27.39;40.37
23619;BME280;18207;32.078;34.818;2023-11-21T03:15:36;101082.41;;;27.39;40.62
23619;BME280;18207;32.078;34.818;2023-11-21T03:18:06;101078.78;;;27.38;40.10
23619;BME280;18207;32.078;34.818;2023-11-21T03:20:36;101085.22;;;27.39;40.31
23619;BME280;18207;32.078;34.818;2023-11-21T03:23:06;101090.88;;;27.39;40.32
23619;BME280;18207;32.078;34.818;2023-11-21T03:25:37;101102.16;;;27.39;40.33
23619;BME280;18207;32.078;34.818;2023-11-21T03:28:07;101105.38;;;27.37;40.34
23619;BME280;18207;32.078;34.818;2023-11-21T03:30:37;101120.28;;;27.38;40.29
23619;BME280;18207;32.078;34.818;2023-11-21T03:33:07;101133.59;;;27.37;40.18
23619;BME280;18207;32.078;34.818;2023-11-21T03:35:37;101126.69;;;27.35;40.16
23619;BME280;18207;32.078;34.818;2023-11-21T03:38:10;101130.63;;;27.30;40.11
23619;BME280;18207;32.078;34.818;2023-11-21T03:40:42;101129.72;;;27.26;40.07
23619;BME280;18207;32.078;34.818;2023-11-21T03:43:12;101135.69;;;27.21;40.07
23619;BME280;18207;32.078;34.818;2023-11-21T03:45:41;101144.81;;;27.15;40.04
23619;BME280;18207;32.078;34.818;2023-11-21T03:48:13;101148.75;;;27.10;40.05
23619;BME280;18207;32.078;34.818;2023-11-21T03:50:43;101148.22;;;27.05;40.09
23619;BME280;18207;32.078;34.818;2023-11-21T03:53:12;101158.94;;;26.99;40.17
23619;BME280;18207;32.078;34.818;2023-11-21T03:55:44;101163.69;;;26.95;39.83
23619;BME280;18207;32.078;34.818;2023-11-21T03:58:14;101164.34;;;26.89;40.05
23619;BME280;18207;32.078;34.818;2023-11-21T04:00:43;101166.28;;;26.85;39.96
23619;BME280;18207;32.078;34.818;2023-11-21T04:03:13;101175.00;;;26.80;40.17
23619;BME280;18207;32.078;34.818;2023-11-21T04:05:47;101183.78;;;26.75;40.07
23619;BME280;18207;32.078;34.818;2023-11-21T04:08:16;101190.84;;;26.69;40.12
23619;BME280;18207;32.078;34.818;2023-11-21T04:10:48;101183.50;;;26.65;40.28
23619;BME280;18207;32.078;34.818;2023-11-21T04:13:17;101199.88;;;26.59;40.35
23619;BME280;18207;32.078;34.818;2023-11-21T04:15:47;101197.34;;;26.54;40.25
23619;BME280;18207;32.078;34.818;2023-11-21T04:18:16;101197.59;;;26.49;40.48
23619;BME280;18207;32.078;34.818;2023-11-21T04:20:46;101196.72;;;26.45;40.10
23619;BME280;18207;32.078;34.818;2023-11-21T04:23:17;101208.25;;;26.40;40.23
23619;BME280;18207;32.078;34.818;2023-11-21T04:25:48;101209.31;;;26.36;40.30
23619;BME280;18207;32.078;34.818;2023-11-21T04:28:17;101205.59;;;26.32;40.35
23619;BME280;18207;32.078;34.818;2023-11-21T04:30:47;101204.69;;;26.28;40.54
23619;BME280;18207;32.078;34.818;2023-11-21T04:33:17;101224.78;;;26.26;40.42
23619;BME280;18207;32.078;34.818;2023-11-21T04:35:46;101218.22;;;26.22;40.49
23619;BME280;18207;32.078;34.818;2023-11-21T04:38:16;101223.78;;;26.19;40.44
23619;BME280;18207;32.078;34.818;2023-11-21T04:40:48;101225.31;;;26.16;40.61
23619;BME280;18207;32.078;34.818;2023-11-21T04:43:18;101225.22;;;26.13;40.64
23619;BME280;18207;32.078;34.818;2023-11-21T04:45:47;101233.22;;;26.11;40.49
23619;BME280;18207;32.078;34.818;2023-11-21T04:48:17;101239.56;;;26.08;40.74
23619;BME280;18207;32.078;34.818;2023-11-21T04:50:46;101256.00;;;26.06;40.64
23619;BME280;18207;32.078;34.818;2023-11-21T04:53:16;101261.19;;;26.04;40.69
23619;BME280;18207;32.078;34.818;2023-11-21T04:55:47;101260.75;;;26.02;40.88
23619;BME280;18207;32.078;34.818;2023-11-21T04:58:17;101272.81;;;26.02;40.75
23619;BME280;18207;32.078;34.818;2023-11-21T05:00:47;101282.53;;;26.05;40.90
23619;BME280;18207;32.078;34.818;2023-11-21T05:03:17;101287.47;;;26.08;40.86
23619;BME280;18207;32.078;34.818;2023-11-21T05:05:47;101286.47;;;26.16;40.87
23619;BME280;18207;32.078;34.818;2023-11-21T05:08:17;101289.84;;;26.21;40.98
23619;BME280;18207;32.078;34.818;2023-11-21T05:10:50;101301.34;;;26.28;40.86
23619;BME280;18207;32.078;34.818;2023-11-21T05:13:20;101298.25;;;26.33;40.93
23619;BME280;18207;32.078;34.818;2023-11-21T05:15:50;101292.34;;;26.38;40.78
23619;BME280;18207;32.078;34.818;2023-11-21T05:18:20;101300.94;;;26.42;40.99
23619;BME280;18207;32.078;34.818;2023-11-21T05:20:55;101305.03;;;26.44;40.91
23619;BME280;18207;32.078;34.818;2023-11-21T05:23:25;101304.66;;;26.46;40.74
23619;BME280;18207;32.078;34.818;2023-11-21T05:25:56;101307.47;;;26.46;40.71
23619;BME280;18207;32.078;34.818;2023-11-21T05:28:25;101306.19;;;26.43;40.55
23619;BME280;18207;32.078;34.818;2023-11-21T05:30:55;101311.03;;;26.43;40.80
23619;BME280;18207;32.078;34.818;2023-11-21T05:33:41;101315.84;;;26.42;40.84
23619;BME280;18207;32.078;34.818;2023-11-21T05:36:11;101306.19;;;26.43;40.86
23619;BME280;18207;32.078;34.818;2023-11-21T05:38:40;101314.28;;;26.45;40.97
23619;BME280;18207;32.078;34.818;2023-11-21T05:41:12;101316.75;;;26.46;40.85
23619;BME280;18207;32.078;34.818;2023-11-21T05:43:42;101327.66;;;26.48;40.91
23619;BME280;18207;32.078;34.818;2023-11-21T05:46:12;101326.56;;;26.52;41.00
23619;BME280;18207;32.078;34.818;2023-11-21T05:48:42;101336.41;;;26.58;41.02
23619;BME280;18207;32.078;34.818;2023-11-21T05:51:13;101340.22;;;26.66;41.08
23619;BME280;18207;32.078;34.818;2023-11-21T05:53:43;101337.63;;;26.73;41.16
23619;BME280;18207;32.078;34.818;2023-11-21T05:56:13;101338.69;;;26.83;41.08
23619;BME280;18207;32.078;34.818;2023-11-21T05:58:42;101331.31;;;26.94;40.95
23619;BME280;18207;32.078;34.818;2023-11-21T06:01:12;101333.63;;;27.04;40.87
23619;BME280;18207;32.078;34.818;2023-11-21T06:03:42;101339.09;;;27.13;40.97
23619;BME280;18207;32.078;34.818;2023-11-21T06:06:12;101334.88;;;27.22;40.88
23619;BME280;18207;32.078;34.818;2023-11-21T06:08:41;101336.78;;;27.34;41.11
23619;BME280;18207;32.078;34.818;2023-11-21T06:11:12;101349.56;;;27.47;41.17
23619;BME280;18207;32.078;34.818;2023-11-21T06:13:43;101345.84;;;27.58;41.35
23619;BME280;18207;32.078;34.818;2023-11-21T06:16:16;101345.38;;;27.72;40.84
23619;BME280;18207;32.078;34.818;2023-11-21T06:18:47;101346.88;;;27.84;40.86
23619;BME280;18207;32.078;34.818;2023-11-21T06:21:17;101340.63;;;27.94;40.66
23619;BME280;18207;32.078;34.818;2023-11-21T06:23:46;101348.13;;;28.06;41.09
23619;BME280;18207;32.078;34.818;2023-11-21T06:26:21;101349.19;;;28.17;40.97
23619;BME280;18207;32.078;34.818;2023-11-21T06:28:52;101347.78;;;28.26;40.81
23619;BME280;18207;32.078;34.818;2023-11-21T06:31:21;101352.03;;;28.36;40.62
23619;BME280;18207;32.078;34.818;2023-11-21T06:33:51;101352.59;;;28.45;41.16
23619;BME280;18207;32.078;34.818;2023-11-21T06:36:21;101356.38;;;28.52;40.58
23619;BME280;18207;32.078;34.818;2023-11-21T06:38:50;101355.63;;;28.55;40.29
23619;BME280;18207;32.078;34.818;2023-11-21T06:41:21;101358.53;;;28.59;40.62
23619;BME280;18207;32.078;34.818;2023-11-21T06:43:51;101368.28;;;28.61;40.50
23619;BME280;18207;32.078;34.818;2023-11-21T06:46:21;101365.06;;;28.63;40.12
23619;BME280;18207;32.078;34.818;2023-11-21T06:48:52;101368.34;;;28.64;40.74
23619;BME280;18207;32.078;34.818;2023-11-21T06:51:22;101378.53;;;28.69;40.47
23619;BME280;18207;32.078;34.818;2023-11-21T06:53:51;101371.00;;;28.76;40.19
23619;BME280;18207;32.078;34.818;2023-11-21T06:56:22;101376.44;;;28.85;40.30
23619;BME280;18207;32.078;34.818;2023-11-21T06:58:52;101377.78;;;28.91;40.57
23619;BME280;18207;32.078;34.818;2023-11-21T07:01:22;101379.06;;;28.97;40.20
23619;BME280;18207;32.078;34.818;2023-11-21T07:03:52;101381.16;;;29.00;40.12
23619;BME280;18207;32.078;34.818;2023-11-21T07:06:22;101380.38;;;29.03;40.45
23619;BME280;18207;32.078;34.818;2023-11-21T07:08:51;101386.03;;;29.03;40.05
23619;BME280;18207;32.078;34.818;2023-11-21T07:11:23;101381.97;;;29.00;40.08
23619;BME280;18207;32.078;34.818;2023-11-21T07:13:53;101390.84;;;28.99;40.04
23619;BME280;18207;32.078;34.818;2023-11-21T07:16:22;101395.75;;;29.02;40.21
23619;BME280;18207;32.078;34.818;2023-11-21T07:18:53;101393.44;;;29.07;40.33
23619;BME280;18207;32.078;34.818;2023-11-21T07:21:23;101397.19;;;29.15;40.41
23619;BME280;18207;32.078;34.818;2023-11-21T07:23:52;101394.91;;;29.24;40.18
23619;BME280;18207;32.078;34.818;2023-11-21T07:26:23;101394.72;;;29.36;40.35
23619;BME280;18207;32.078;34.818;2023-11-21T07:28:53;101391.72;;;29.48;40.44
23619;BME280;18207;32.078;34.818;2023-11-21T07:31:24;101388.22;;;29.57;40.29
23619;BME280;18207;32.078;34.818;2023-11-21T07:33:53;101384.75;;;29.67;40.57
23619;BME280;18207;32.078;34.818;2023-11-21T07:36:25;101392.19;;;29.79;40.41
23619;BME280;18207;32.078;34.818;2023-11-21T07:38:55;101382.22;;;29.88;40.09
23619;BME280;18207;32.078;34.818;2023-11-21T07:41:26;101387.63;;;29.97;40.51
23619;BME280;18207;32.078;34.818;2023-11-21T07:43:58;101386.94;;;30.07;39.83
23619;BME280;18207;32.078;34.818;2023-11-21T07:46:28;101393.13;;;30.16;40.10
23619;BME280;18207;32.078;34.818;2023-11-21T07:48:58;101385.97;;;30.25;40.18
23619;BME280;18207;32.078;34.818;2023-11-21T07:51:28;101397.44;;;30.36;39.55
23619;BME280;18207;32.078;34.818;2023-11-21T07:53:57;101390.28;;;30.45;40.05
23619;BME280;18207;32.078;34.818;2023-11-21T07:56:28;101397.69;;;30.53;39.77
23619;BME280;18207;32.078;34.818;2023-11-21T07:58:58;101393.31;;;30.59;40.15
23619;BME280;18207;32.078;34.818;2023-11-21T08:01:28;101393.81;;;30.68;39.85
23619;BME280;18207;32.078;34.818;2023-11-21T08:03:57;101391.06;;;30.75;39.42
23619;BME280;18207;32.078;34.818;2023-11-21T08:06:32;101380.59;;;30.82;39.71
23619;BME280;18207;32.078;34.818;2023-11-21T08:09:02;101377.00;;;30.89;39.86
23619;BME280;18207;32.078;34.818;2023-11-21T08:11:33;101378.72;;;30.97;39.38
23619;BME280;18207;32.078;34.818;2023-11-21T08:14:03;101367.84;;;31.02;39.48
23619;BME280;18207;32.078;34.818;2023-11-21T08:16:32;101373.97;;;31.08;39.79
23619;BME280;18207;32.078;34.818;2023-11-21T08:19:02;101369.16;;;31.15;39.50
23619;BME280;18207;32.078;34.818;2023-11-21T08:21:32;101370.44;;;31.21;39.14
23619;BME280;18207;32.078;34.818;2023-11-21T08:24:01;101359.13;;;31.28;39.11
23619;BME280;18207;32.078;34.818;2023-11-21T08:26:34;101361.59;;;31.33;39.62
23619;BME280;18207;32.078;34.818;2023-11-21T08:29:03;101357.97;;;31.36;39.30
23619;BME280;18207;32.078;34.818;2023-11-21T08:31:35;101351.09;;;31.37;38.97
23619;BME280;18207;32.078;34.818;2023-11-21T08:34:05;101348.25;;;31.37;38.97
23619;BME280;18207;32.078;34.818;2023-11-21T08:36:35;101357.59;;;31.37;38.72
23619;BME280;18207;32.078;34.818;2023-11-21T08:39:05;101347.84;;;31.38;39.47
23619;BME280;18207;32.078;34.818;2023-11-21T08:41:36;101342.56;;;31.37;39.11
23619;BME280;18207;32.078;34.818;2023-11-21T08:44:06;101353.91;;;31.33;38.69
23619;BME280;18207;32.078;34.818;2023-11-21T08:46:36;101344.50;;;31.26;39.16
23619;BME280;18207;32.078;34.818;2023-11-21T08:49:07;101339.56;;;31.20;38.57
23619;BME280;18207;32.078;34.818;2023-11-21T08:51:37;101352.13;;;31.15;38.83
23619;BME280;18207;32.078;34.818;2023-11-21T08:54:07;101343.19;;;31.13;38.51
23619;BME280;18207;32.078;34.818;2023-11-21T08:56:38;101341.94;;;31.11;38.82
23619;BME280;18207;32.078;34.818;2023-11-21T08:59:08;101343.53;;;31.08;38.90
23619;BME280;18207;32.078;34.818;2023-11-21T09:01:37;101339.03;;;31.04;38.39
23619;BME280;18207;32.078;34.818;2023-11-21T09:04:07;101330.47;;;31.00;38.79
23619;BME280;18207;32.078;34.818;2023-11-21T09:06:37;101336.53;;;30.99;39.12
23619;BME280;18207;32.078;34.818;2023-11-21T09:09:06;101329.59;;;30.96;38.91
23619;BME280;18207;32.078;34.818;2023-11-21T09:11:39;101325.53;;;30.94;38.67
23619;BME280;18207;32.078;34.818;2023-11-21T09:14:09;101326.72;;;30.89;38.70
23619;BME280;18207;32.078;34.818;2023-11-21T09:16:40;101326.69;;;30.86;38.49
23619;BME280;18207;32.078;34.818;2023-11-21T09:19:11;101322.56;;;30.80;38.33
23619;BME280;18207;32.078;34.818;2023-11-21T09:21:42;101317.69;;;30.77;38.23
23619;BME280;18207;32.078;34.818;2023-11-21T09:24:11;101320.50;;;30.73;38.56
23619;BME280;18207;32.078;34.818;2023-11-21T09:26:42;101322.50;;;30.73;38.26
23619;BME280;18207;32.078;34.818;2023-11-21T09:29:13;101325.75;;;30.71;38.57
23619;BME280;18207;32.078;34.818;2023-11-21T09:31:43;101323.28;;;30.70;38.70
23619;BME280;18207;32.078;34.818;2023-11-21T09:34:13;101322.47;;;30.69;38.36
23619;BME280;18207;32.078;34.818;2023-11-21T09:36:46;101316.38;;;30.67;38.32
23619;BME280;18207;32.078;34.818;2023-11-21T09:39:16;101315.56;;;30.67;38.53
23619;BME280;18207;32.078;34.818;2023-11-21T09:41:51;101315.94;;;30.65;38.65
23619;BME280;18207;32.078;34.818;2023-11-21T09:44:34;101310.25;;;30.65;38.43
23619;BME280;18207;32.078;34.818;2023-11-21T09:47:05;101307.38;;;30.62;38.47
23619;BME280;18207;32.078;34.818;2023-11-21T09:49:39;101313.47;;;30.60;38.26
23619;BME280;18207;32.078;34.818;2023-11-21T09:52:22;101309.00;;;30.59;38.66
23619;BME280;18207;32.078;34.818;2023-11-21T09:54:55;101302.88;;;30.57;38.39
23619;BME280;18207;32.078;34.818;2023-11-21T09:57:28;101302.44;;;30.55;38.71
23619;BME280;18207;32.078;34.818;2023-11-21T10:00:02;101298.38;;;30.53;38.79
23619;BME280;18207;32.078;34.818;2023-11-21T10:02:35;101302.41;;;30.52;38.45
23619;BME280;18207;32.078;34.818;2023-11-21T10:05:07;101299.16;;;30.50;38.07
23619;BME280;18207;32.078;34.818;2023-11-21T10:07:40;101295.91;;;30.48;38.40
23619;BME280;18207;32.078;34.818;2023-11-21T10:10:13;101294.25;;;30.47;38.60
23619;BME280;18207;32.078;34.818;2023-11-21T10:12:50;101284.09;;;30.46;38.42
23619;BME280;18207;32.078;34.818;2023-11-21T10:15:23;101281.22;;;30.42;38.73
23619;BME280;18207;32.078;34.818;2023-11-21T10:18:07;101282.81;;;30.40;38.68
23619;BME280;18207;32.078;34.818;2023-11-21T10:20:37;101280.78;;;30.37;38.69
23619;BME280;18207;32.078;34.818;2023-11-21T10:23:07;101277.91;;;30.34;38.17
23619;BME280;18207;32.078;34.818;2023-11-21T10:25:41;101276.22;;;30.29;38.42
23619;BME280;18207;32.078;34.818;2023-11-21T10:28:12;101268.50;;;30.26;38.27
23619;BME280;18207;32.078;34.818;2023-11-21T10:30:41;101262.38;;;30.24;38.47
23619;BME280;18207;32.078;34.818;2023-11-21T10:33:12;101256.28;;;30.22;38.76
23619;BME280;18207;32.078;34.818;2023-11-21T10:35:47;101250.59;;;30.22;38.47
23619;BME280;18207;32.078;34.818;2023-11-21T10:38:19;101245.34;;;30.21;38.46
23619;BME280;18207;32.078;34.818;2023-11-21T10:40:51;101242.06;;;30.19;38.37
23619;BME280;18207;32.078;34.818;2023-11-21T10:43:26;101251.41;;;30.19;38.11
23619;BME280;18207;32.078;34.818;2023-11-21T10:45:58;101252.16;;;30.16;38.86
23619;BME280;18207;32.078;34.818;2023-11-21T10:48:28;101257.00;;;30.16;38.36
23619;BME280;18207;32.078;34.818;2023-11-21T10:50:58;101253.78;;;30.14;38.44
23619;BME280;18207;32.078;34.818;2023-11-21T10:53:29;101252.94;;;30.13;38.68
23619;BME280;18207;32.078;34.818;2023-11-21T10:56:06;101248.47;;;30.12;38.54
23619;BME280;18207;32.078;34.818;2023-11-21T10:58:41;101242.41;;;30.10;38.40
23619;BME280;18207;32.078;34.818;2023-11-21T11:01:11;101245.59;;;30.09;38.40
23619;BME280;18207;32.078;34.818;2023-11-21T11:03:43;101238.28;;;30.08;38.22
23619;BME280;18207;32.078;34.818;2023-11-21T11:06:15;101239.13;;;30.08;38.51
23619;BME280;18207;32.078;34.818;2023-11-21T11:08:58;101235.84;;;30.06;38.81
23619;BME280;18207;32.078;34.818;2023-11-21T11:11:43;101236.25;;;30.05;38.32
23619;BME280;18207;32.078;34.818;2023-11-21T11:14:17;101230.59;;;30.05;38.35
23619;BME280;18207;32.078;34.818;2023-11-21T11:16:55;101225.69;;;30.02;38.57
23619;BME280;18207;32.078;34.818;2023-11-21T11:19:30;101230.53;;;30.01;38.16
23619;BME280;18207;32.078;34.818;2023-11-21T11:22:19;101231.75;;;30.00;38.17
23619;BME280;18207;32.078;34.818;2023-11-21T11:25:41;101219.53;;;29.96;38.42
23619;BME280;18207;32.078;34.818;2023-11-21T11:28:21;101241.00;;;29.94;38.33
23619;BME280;18207;32.078;34.818;2023-11-21T11:31:06;101221.47;;;29.92;38.40
23619;BME280;18207;32.078;34.818;2023-11-21T11:33:50;101220.69;;;29.92;38.18
23619;BME280;18207;32.078;34.818;2023-11-21T11:36:29;101225.13;;;29.89;38.34
23619;BME280;18207;32.078;34.818;2023-11-21T11:39:01;101225.13;;;29.89;38.03
23619;BME280;18207;32.078;34.818;2023-11-21T11:41:31;101232.78;;;29.89;38.10
23619;BME280;18207;32.078;34.818;2023-11-21T11:44:03;101233.19;;;29.87;38.01
23619;BME280;18207;32.078;34.818;2023-11-21T11:46:45;101233.19;;;29.87;38.45
23619;BME280;18207;32.078;34.818;2023-11-21T11:49:24;101239.63;;;29.84;38.25
23619;BME280;18207;32.078;34.818;2023-11-21T11:52:42;101242.00;;;29.82;37.97
23619;BME280;18207;32.078;34.818;2023-11-21T11:55:13;101241.59;;;29.80;37.90
23619;BME280;18207;32.078;34.818;2023-11-21T11:57:48;101245.63;;;29.79;37.93
23619;BME280;18207;32.078;34.818;2023-11-21T12:00:19;101236.31;;;29.79;38.28
23619;BME280;18207;32.078;34.818;2023-11-21T12:02:56;101243.19;;;29.78;37.66
23619;BME280;18207;32.078;34.818;2023-11-21T12:05:27;101246.41;;;29.76;37.59
23619;BME280;18207;32.078;34.818;2023-11-21T12:08:00;101239.94;;;29.76;37.90
23619;BME280;18207;32.078;34.818;2023-11-21T12:10:33;101243.13;;;29.74;37.79
23619;BME280;18207;32.078;34.818;2023-11-21T12:13:06;101245.97;;;29.74;37.67
23619;BME280;18207;32.078;34.818;2023-11-21T12:15:37;101240.69;;;29.73;37.64
23619;BME280;18207;32.078;34.818;2023-11-21T12:18:10;101245.53;;;29.72;38.09
23619;BME280;18207;32.078;34.818;2023-11-21T12:20:40;101249.19;;;29.73;38.04
23619;BME280;18207;32.078;34.818;2023-11-21T12:23:10;101255.22;;;29.71;37.70
23619;BME280;18207;32.078;34.818;2023-11-21T12:25:43;101245.13;;;29.70;37.79
23619;BME280;18207;32.078;34.818;2023-11-21T12:28:13;101257.66;;;29.69;37.83
23619;BME280;18207;32.078;34.818;2023-11-21T12:30:43;101256.03;;;29.68;37.54
23619;BME280;18207;32.078;34.818;2023-11-21T12:33:15;101248.72;;;29.67;37.73
23619;BME280;18207;32.078;34.818;2023-11-21T12:35:45;101250.31;;;29.65;37.61
23619;BME280;18207;32.078;34.818;2023-11-21T12:38:15;101253.16;;;29.65;37.97
23619;BME280;18207;32.078;34.818;2023-11-21T12:40:46;101254.34;;;29.64;38.08
23619;BME280;18207;32.078;34.818;2023-11-21T12:43:17;101261.22;;;29.63;37.71
23619;BME280;18207;32.078;34.818;2023-11-21T12:45:47;101252.28;;;29.61;37.55
23619;BME280;18207;32.078;34.818;2023-11-21T12:48:19;101255.91;;;29.61;37.35
23619;BME280;18207;32.078;34.818;2023-11-21T12:50:52;101252.66;;;29.59;37.68
23619;BME280;18207;32.078;34.818;2023-11-21T12:53:22;101252.66;;;29.59;37.88
23619;BME280;18207;32.078;34.818;2023-11-21T12:55:52;101255.88;;;29.58;37.42
23619;BME280;18207;32.078;34.818;2023-11-21T12:58:26;101257.06;;;29.57;37.97
23619;BME280;18207;32.078;34.818;2023-11-21T13:00:59;101252.63;;;29.56;37.61
23619;BME280;18207;32.078;34.818;2023-11-21T13:03:34;101249.81;;;29.56;37.71